createdAt,value
2018-12-20T00:01:40.313Z,1.52
2018-12-20T00:05:44.472Z,1.57
2018-12-20T00:09:48.628Z,1.80
2018-12-20T00:13:54.052Z,1.60
2018-12-20T00:17:58.210Z,2.10
2018-12-20T00:22:02.362Z,1.90
2018-12-20T00:26:06.650Z,2.10
2018-12-20T00:30:10.726Z,2.20
2018-12-20T00:34:14.798Z,2.30
2018-12-20T00:38:18.996Z,1.87
2018-12-20T00:42:23.092Z,2.40
2018-12-20T00:46:27.658Z,2.30
2018-12-20T00:50:31.901Z,2.43
2018-12-20T00:54:36.773Z,2.40
2018-12-20T00:58:40.862Z,2.47
2018-12-20T01:02:44.956Z,2.33
2018-12-20T01:06:49.326Z,2.50
2018-12-20T01:10:53.423Z,2.73
2018-12-20T01:14:57.711Z,2.80
2018-12-20T01:19:02.053Z,2.63
2018-12-20T01:23:06.121Z,2.97
2018-12-20T01:27:10.260Z,2.60
2018-12-20T01:31:14.401Z,2.73
2018-12-20T01:35:18.518Z,3.10
2018-12-20T01:39:22.704Z,3.10
2018-12-20T01:43:26.931Z,3.40
2018-12-20T01:47:31.975Z,3.40
2018-12-20T01:51:36.098Z,3.30
2018-12-20T01:55:40.299Z,3.90
2018-12-20T01:59:44.675Z,3.30
2018-12-20T02:03:49.562Z,3.23
2018-12-20T02:07:53.700Z,2.90
2018-12-20T02:11:57.890Z,2.97
2018-12-20T02:16:01.961Z,2.50
2018-12-20T02:20:06.276Z,2.57
2018-12-20T02:24:11.230Z,2.13
2018-12-20T02:28:15.507Z,2.47
2018-12-20T02:32:19.740Z,2.10
2018-12-20T02:36:24.067Z,2.67
2018-12-20T02:40:28.328Z,3.33
2018-12-20T02:44:32.446Z,3.50
2018-12-20T02:48:36.743Z,3.30
2018-12-20T02:52:41.135Z,3.57
2018-12-20T02:56:45.411Z,3.73
2018-12-20T03:00:49.607Z,3.67
2018-12-20T03:04:53.849Z,3.60
2018-12-20T03:08:58.136Z,3.50
2018-12-20T03:13:02.666Z,3.50
2018-12-20T03:17:07.316Z,3.40
2018-12-20T03:21:11.686Z,3.13
2018-12-20T03:25:15.861Z,3.20
2018-12-20T03:29:19.938Z,3.40
2018-12-20T03:33:24.427Z,3.40
2018-12-20T03:37:28.723Z,3.23
2018-12-20T03:41:33.093Z,3.57
2018-12-20T03:45:37.362Z,3.57
2018-12-20T03:49:41.638Z,3.57
2018-12-20T03:53:45.809Z,3.80
2018-12-20T03:57:50.071Z,3.50
2018-12-20T04:01:54.497Z,3.57
2018-12-20T04:05:58.819Z,3.73
2018-12-20T04:10:03.285Z,3.90
2018-12-20T04:14:07.510Z,3.73
2018-12-20T04:18:11.646Z,3.70
2018-12-20T04:22:15.978Z,3.70
2018-12-20T04:26:20.384Z,3.70
2018-12-20T04:30:24.808Z,3.20
2018-12-20T04:34:29.049Z,3.73
2018-12-20T04:38:33.322Z,3.70
2018-12-20T04:42:37.633Z,3.63
2018-12-20T04:46:41.726Z,3.23
2018-12-20T04:50:46.336Z,3.13
2018-12-20T04:54:50.397Z,3.20
2018-12-20T04:58:54.638Z,2.97
2018-12-20T05:02:58.954Z,3.15
2018-12-20T05:07:03.365Z,3.17
2018-12-20T05:11:07.518Z,3.03
2018-12-20T05:15:12.128Z,2.93
2018-12-20T05:19:16.325Z,2.90
2018-12-20T05:23:20.629Z,3.00
2018-12-20T05:27:25.416Z,2.57
2018-12-20T05:31:29.526Z,2.90
2018-12-20T05:35:33.627Z,3.10
2018-12-20T05:39:37.753Z,2.43
2018-12-20T05:43:41.933Z,2.53
2018-12-20T05:47:46.057Z,2.40
2018-12-20T05:51:50.362Z,2.30
2018-12-20T05:55:54.770Z,2.40
2018-12-20T05:59:59.203Z,2.60
2018-12-20T06:04:03.403Z,2.40
2018-12-20T06:08:07.594Z,2.40
2018-12-20T06:12:12.058Z,2.10
2018-12-20T06:16:16.385Z,2.43
2018-12-20T06:20:20.716Z,2.50
2018-12-20T06:24:25.692Z,2.40
2018-12-20T06:28:29.821Z,2.33
2018-12-20T06:32:33.933Z,2.43
2018-12-20T06:36:38.039Z,2.10
2018-12-20T06:40:42.117Z,2.00
2018-12-20T06:44:46.920Z,2.90
2018-12-20T06:48:51.049Z,2.30
2018-12-20T06:52:55.148Z,2.10
2018-12-20T06:56:59.296Z,2.30
2018-12-20T07:01:03.453Z,2.20
2018-12-20T07:05:07.642Z,2.37
2018-12-20T07:09:11.754Z,2.10
2018-12-20T07:13:15.827Z,2.10
2018-12-20T07:17:20.007Z,2.27
2018-12-20T07:21:24.109Z,2.33
2018-12-20T07:25:28.268Z,2.30
2018-12-20T07:29:32.370Z,2.70
2018-12-20T07:33:36.472Z,3.80
2018-12-20T07:37:40.601Z,2.80
2018-12-20T07:41:44.734Z,2.50
2018-12-20T07:45:48.893Z,2.90
2018-12-20T07:49:52.998Z,2.57
2018-12-20T07:53:57.106Z,1.73
2018-12-20T07:58:01.246Z,2.22
2018-12-20T08:02:05.341Z,2.33
2018-12-20T08:06:09.414Z,2.10
2018-12-20T08:10:14.839Z,1.80
2018-12-20T08:14:19.074Z,2.20
2018-12-20T08:18:24.025Z,2.17
2018-12-20T08:22:28.119Z,1.90
2018-12-20T08:26:32.349Z,2.00
2018-12-20T08:30:36.466Z,2.07
2018-12-20T08:34:40.577Z,1.93
2018-12-20T08:38:44.662Z,1.87
2018-12-20T08:42:48.759Z,1.80
2018-12-20T08:46:54.507Z,1.83
2018-12-20T08:50:59.671Z,1.80
2018-12-20T08:55:05.345Z,1.63
2018-12-20T08:59:09.433Z,1.60
2018-12-20T09:03:13.530Z,1.80
2018-12-20T09:07:17.625Z,1.70
2018-12-20T09:11:22.107Z,1.70
2018-12-20T09:15:26.261Z,1.50
2018-12-20T09:19:30.340Z,1.63
2018-12-20T09:23:34.446Z,1.63
2018-12-20T09:27:38.525Z,1.87
2018-12-20T09:31:42.673Z,1.30
2018-12-20T09:35:46.753Z,1.60
2018-12-20T09:39:50.829Z,1.50
2018-12-20T09:43:54.926Z,1.20
2018-12-20T09:48:04.338Z,1.13
2018-12-20T09:52:08.445Z,1.00
2018-12-20T09:56:12.684Z,0.80
2018-12-20T10:00:16.773Z,1.10
2018-12-20T10:04:20.848Z,1.17
2018-12-20T10:08:24.919Z,0.60
2018-12-20T10:12:29.013Z,1.00
2018-12-20T10:16:33.743Z,0.70
2018-12-20T10:20:37.829Z,0.70
2018-12-20T10:24:42.268Z,1.00
2018-12-20T10:28:46.672Z,0.90
2018-12-20T10:32:50.766Z,0.70
2018-12-20T10:36:54.975Z,0.70
2018-12-20T10:40:59.061Z,0.90
2018-12-20T10:45:03.209Z,1.07
2018-12-20T10:49:07.459Z,0.77
2018-12-20T10:53:11.537Z,1.10
2018-12-20T10:57:15.698Z,1.40
2018-12-20T11:01:25.253Z,1.23
2018-12-20T11:05:35.000Z,1.10
2018-12-20T11:09:44.529Z,0.87
2018-12-20T11:13:55.349Z,1.02
2018-12-20T11:17:59.429Z,1.30
2018-12-20T11:22:03.625Z,0.97
2018-12-20T11:26:07.697Z,0.80
2018-12-20T11:30:11.964Z,1.27
2018-12-20T11:34:16.079Z,1.13
2018-12-20T11:38:20.210Z,1.50
2018-12-20T11:42:24.334Z,1.10
2018-12-20T11:46:28.505Z,1.47
2018-12-20T11:50:32.589Z,1.10
2018-12-20T11:54:36.662Z,1.30
2018-12-20T11:58:40.743Z,1.23
2018-12-20T12:02:44.976Z,1.00
2018-12-20T12:06:49.076Z,1.20
2018-12-20T12:10:53.189Z,1.47
2018-12-20T12:14:57.277Z,1.17
2018-12-20T12:19:01.448Z,0.93
2018-12-20T12:23:05.578Z,1.30
2018-12-20T12:27:09.672Z,1.60
2018-12-20T12:31:13.756Z,1.50
2018-12-20T12:35:17.955Z,1.20
2018-12-20T12:39:22.062Z,1.47
2018-12-20T12:43:26.145Z,1.10
2018-12-20T12:47:35.701Z,1.45
2018-12-20T12:51:39.790Z,1.30
2018-12-20T12:55:43.879Z,1.37
2018-12-20T12:59:48.101Z,1.30
2018-12-20T13:03:52.229Z,1.30
2018-12-20T13:07:56.312Z,1.10
2018-12-20T13:12:00.417Z,1.27
2018-12-20T13:16:04.883Z,1.20
2018-12-20T13:20:10.124Z,0.90
2018-12-20T13:24:14.355Z,1.17
2018-12-20T13:28:18.583Z,1.10
2018-12-20T13:32:22.808Z,1.00
2018-12-20T13:36:26.876Z,1.20
2018-12-20T13:40:30.967Z,1.30
2018-12-20T13:44:35.053Z,1.20
2018-12-20T13:48:39.290Z,1.00
2018-12-20T13:52:43.391Z,1.10
2018-12-20T13:56:47.544Z,1.00
2018-12-20T14:00:52.887Z,1.10
2018-12-20T14:04:56.993Z,1.00
2018-12-20T14:09:01.368Z,1.50
2018-12-20T14:13:05.724Z,1.33
2018-12-20T14:17:09.849Z,1.50
2018-12-20T14:21:14.113Z,1.60
2018-12-20T14:25:18.209Z,1.20
2018-12-20T14:29:22.375Z,1.30
2018-12-20T14:33:26.455Z,0.93
2018-12-20T14:37:30.546Z,1.27
2018-12-20T14:41:34.649Z,1.37
2018-12-20T14:45:38.735Z,1.23
2018-12-20T14:49:42.891Z,1.37
2018-12-20T14:53:47.047Z,1.50
2018-12-20T14:57:52.102Z,1.60
2018-12-20T15:01:56.265Z,1.40
2018-12-20T15:06:00.362Z,1.30
2018-12-20T15:10:07.841Z,1.10
2018-12-20T15:14:11.929Z,1.47
2018-12-20T15:18:16.031Z,1.53
2018-12-20T15:22:20.184Z,1.60
2018-12-20T15:26:24.250Z,1.50
2018-12-20T15:30:28.401Z,1.67
2018-12-20T15:34:32.480Z,1.40
2018-12-20T15:38:36.560Z,1.60
2018-12-20T15:42:40.770Z,1.50
2018-12-20T15:46:45.009Z,1.60
2018-12-20T15:50:49.112Z,1.50
2018-12-20T15:54:53.192Z,1.70
2018-12-20T15:58:57.307Z,1.60
2018-12-20T16:03:01.348Z,1.30
2018-12-20T16:07:05.563Z,1.40
2018-12-20T16:11:09.657Z,1.30
2018-12-20T16:15:13.726Z,1.70
2018-12-20T16:19:17.836Z,1.63
2018-12-20T16:23:21.909Z,1.60
2018-12-20T16:27:27.014Z,1.73
2018-12-20T16:31:31.633Z,1.40
2018-12-20T16:35:35.713Z,1.50
2018-12-20T16:39:39.853Z,1.37
2018-12-20T16:43:43.910Z,1.77
2018-12-20T16:47:48.116Z,1.90
2018-12-20T16:51:52.305Z,1.70
2018-12-20T16:55:56.466Z,1.73
2018-12-20T17:00:00.636Z,1.70
2018-12-20T17:04:04.721Z,1.60
2018-12-20T17:08:08.886Z,1.20
2018-12-20T17:12:14.030Z,1.70
2018-12-20T17:16:18.106Z,1.70
2018-12-20T17:20:22.190Z,1.57
2018-12-20T17:24:26.269Z,1.50
2018-12-20T17:28:30.371Z,1.50
2018-12-20T17:32:34.489Z,1.30
2018-12-20T17:36:38.652Z,1.43
2018-12-20T17:40:42.733Z,1.40
2018-12-20T17:44:46.889Z,1.27
2018-12-20T17:48:51.016Z,1.70
2018-12-20T17:52:55.100Z,1.30
2018-12-20T17:56:59.264Z,1.60
2018-12-20T18:01:03.417Z,1.50
2018-12-20T18:05:07.621Z,1.30
2018-12-20T18:09:12.265Z,1.50
2018-12-20T18:13:16.349Z,1.40
2018-12-20T18:17:21.599Z,1.40
2018-12-20T18:21:25.663Z,1.53
2018-12-20T18:25:29.773Z,1.30
2018-12-20T18:29:35.426Z,1.40
2018-12-20T18:33:39.583Z,1.40
2018-12-20T18:37:43.642Z,1.30
2018-12-20T18:41:47.749Z,1.50
2018-12-20T18:45:51.906Z,1.53
2018-12-20T18:49:56.019Z,1.30
2018-12-20T18:54:00.262Z,1.40
2018-12-20T18:58:04.362Z,1.23
2018-12-20T19:02:09.485Z,1.40
2018-12-20T19:06:13.566Z,1.40
2018-12-20T19:10:18.881Z,1.30
2018-12-20T19:14:23.028Z,1.37
2018-12-20T19:18:27.348Z,1.50
2018-12-20T19:22:31.456Z,1.47
2018-12-20T19:26:35.604Z,1.73
2018-12-20T19:30:39.728Z,1.70
2018-12-20T19:34:43.782Z,1.80
2018-12-20T19:38:48.012Z,1.40
2018-12-20T19:42:52.106Z,1.40
2018-12-20T19:46:56.938Z,1.50
2018-12-20T19:51:01.004Z,1.40
2018-12-20T19:55:06.236Z,1.50
2018-12-20T19:59:10.333Z,1.53
2018-12-20T20:03:14.417Z,1.47
2018-12-20T20:07:18.589Z,1.63
2018-12-20T20:11:22.963Z,1.73
2018-12-20T20:15:27.146Z,1.72
2018-12-20T20:19:31.239Z,1.50
2018-12-20T20:23:35.360Z,1.47
2018-12-20T20:27:39.443Z,1.50
2018-12-20T20:31:43.657Z,1.40
2018-12-20T20:35:47.829Z,1.40
2018-12-20T20:39:51.930Z,1.17
2018-12-20T20:43:56.027Z,1.47
2018-12-20T20:48:00.929Z,1.17
2018-12-20T20:52:04.989Z,1.37
2018-12-20T20:56:09.104Z,1.30
2018-12-20T21:00:13.903Z,1.60
2018-12-20T21:04:18.077Z,1.30
2018-12-20T21:08:23.364Z,1.50
2018-12-20T21:12:27.534Z,1.97
2018-12-20T21:16:31.629Z,1.60
2018-12-20T21:20:35.716Z,1.27
2018-12-20T21:24:39.859Z,1.50
2018-12-20T21:28:44.948Z,1.60
2018-12-20T21:32:49.004Z,1.60
2018-12-20T21:36:53.126Z,1.50
2018-12-20T21:40:57.413Z,1.30
2018-12-20T21:45:01.475Z,1.50
2018-12-20T21:49:05.551Z,1.27
2018-12-20T21:53:09.645Z,1.37
2018-12-20T21:57:13.734Z,1.67
2018-12-20T22:01:17.827Z,1.70
2018-12-20T22:05:21.893Z,1.50
2018-12-20T22:09:47.645Z,1.37
2018-12-20T22:18:47.765Z,1.83
2018-12-20T22:22:51.870Z,1.60
2018-12-20T22:31:48.447Z,1.13
2018-12-20T22:35:53.541Z,1.40
2018-12-20T22:39:58.644Z,1.40
2018-12-20T22:44:02.859Z,1.30
2018-12-20T22:48:07.010Z,1.47
2018-12-20T22:52:11.152Z,1.30
2018-12-20T22:56:15.262Z,1.37
2018-12-20T23:00:19.435Z,1.30
2018-12-20T23:04:23.582Z,1.77
2018-12-20T23:08:27.682Z,1.27
2018-12-20T23:12:31.741Z,1.23
2018-12-20T23:16:35.825Z,1.33
2018-12-20T23:20:39.944Z,1.30
2018-12-20T23:24:44.013Z,1.20
2018-12-20T23:28:48.228Z,1.40
2018-12-20T23:32:52.321Z,1.17
2018-12-20T23:36:56.500Z,1.30
2018-12-20T23:41:00.597Z,1.37
2018-12-20T23:45:05.898Z,1.20
2018-12-20T23:49:09.980Z,1.27
2018-12-20T23:53:14.080Z,1.30
2018-12-20T23:57:18.158Z,1.20
